createdAt,value
2022-10-19T02:31:55.503Z,1027.40
2022-10-19T02:32:56.858Z,1027.40
2022-10-19T02:33:57.217Z,1027.39
2022-10-19T02:34:57.580Z,1027.38
2022-10-19T02:35:57.948Z,1027.45
2022-10-19T02:36:58.347Z,1027.44
2022-10-19T02:37:58.662Z,1027.44
2022-10-19T02:38:59.016Z,1027.43
2022-10-19T02:39:59.384Z,1027.51
2022-10-19T02:40:59.726Z,1027.42
2022-10-19T02:42:00.106Z,1027.46
2022-10-19T02:43:00.456Z,1027.49
2022-10-19T02:44:00.821Z,1027.45
2022-10-19T02:45:01.189Z,1027.46
2022-10-19T02:46:07.547Z,1027.44
2022-10-19T02:47:01.983Z,1027.45
2022-10-19T02:48:02.259Z,1027.44
2022-10-19T02:49:02.610Z,1027.45
2022-10-19T02:50:02.985Z,1027.51
2022-10-19T02:51:03.333Z,1027.46
2022-10-19T02:52:03.758Z,1027.46
2022-10-19T02:53:04.057Z,1027.49
2022-10-19T02:54:05.410Z,1027.47
2022-10-19T02:55:04.800Z,1027.49
2022-10-19T02:56:05.133Z,1027.50
2022-10-19T02:57:05.499Z,1027.53
2022-10-19T02:58:05.861Z,1027.50
2022-10-19T02:59:06.238Z,1027.57
2022-10-19T03:00:06.625Z,1027.59
2022-10-19T03:01:07.071Z,1027.60
2022-10-19T03:02:07.350Z,1027.53
2022-10-19T03:03:07.707Z,1027.56
2022-10-19T03:04:08.058Z,1027.52
2022-10-19T03:05:08.433Z,1027.53
2022-10-19T03:06:08.830Z,1027.52
2022-10-19T03:07:09.203Z,1027.53
2022-10-19T03:08:09.524Z,1027.55
2022-10-19T03:09:09.865Z,1027.54
2022-10-19T03:10:10.214Z,1027.53
2022-10-19T03:11:10.571Z,1027.54
2022-10-19T03:12:10.935Z,1027.57
2022-10-19T03:13:11.286Z,1027.60
2022-10-19T03:14:11.666Z,1027.54
2022-10-19T03:15:12.020Z,1027.56
2022-10-19T03:16:12.411Z,1027.54
2022-10-19T03:17:12.780Z,1027.55
2022-10-19T03:18:13.099Z,1027.50
2022-10-19T03:19:13.497Z,1027.53
2022-10-19T03:20:13.815Z,1027.54
2022-10-19T03:21:14.184Z,1027.52
2022-10-19T03:22:14.592Z,1027.53
2022-10-19T03:23:14.904Z,1027.59
2022-10-19T03:24:15.257Z,1027.58
2022-10-19T03:25:15.630Z,1027.61
2022-10-19T03:26:15.980Z,1027.56
2022-10-19T03:27:16.380Z,1027.59
2022-10-19T03:28:16.697Z,1027.60
2022-10-19T03:29:17.057Z,1027.62
2022-10-19T03:30:17.452Z,1027.65
2022-10-19T03:31:17.787Z,1027.64
2022-10-19T03:32:18.174Z,1027.66
2022-10-19T03:33:18.604Z,1027.68
2022-10-19T03:34:18.886Z,1027.64
2022-10-19T03:35:19.240Z,1027.70
2022-10-19T03:36:19.608Z,1027.65
2022-10-19T03:37:20.025Z,1027.68
2022-10-19T03:38:20.516Z,1027.64
2022-10-19T03:39:20.706Z,1027.63
2022-10-19T03:40:21.070Z,1027.65
2022-10-19T03:41:21.413Z,1027.63
2022-10-19T03:42:21.829Z,1027.64
2022-10-19T03:43:22.175Z,1027.64
2022-10-19T03:44:22.577Z,1027.61
2022-10-19T03:45:22.915Z,1027.65
2022-10-19T03:46:23.261Z,1027.70
2022-10-19T03:47:23.637Z,1027.69
2022-10-19T03:48:23.993Z,1027.67
2022-10-19T03:49:24.366Z,1027.69
2022-10-19T03:50:24.719Z,1027.71
2022-10-19T03:51:25.078Z,1027.74
2022-10-19T03:52:25.459Z,1027.73
2022-10-19T03:53:25.805Z,1027.74
2022-10-19T03:54:27.457Z,1027.76
2022-10-19T03:55:26.514Z,1027.72
2022-10-19T03:56:26.869Z,1027.74
2022-10-19T03:57:27.324Z,1027.77
2022-10-19T03:58:27.610Z,1027.75
2022-10-19T03:59:27.957Z,1027.78
2022-10-19T04:00:28.317Z,1027.78
2022-10-19T04:01:28.724Z,1027.80
2022-10-19T04:02:29.065Z,1027.80
2022-10-19T04:03:29.536Z,1027.82
2022-10-19T04:04:29.759Z,1027.85
2022-10-19T04:05:30.107Z,1027.84
2022-10-19T04:06:30.473Z,1027.88
2022-10-19T04:07:30.965Z,1027.91
2022-10-19T04:08:31.210Z,1027.93
2022-10-19T04:09:31.567Z,1027.93
2022-10-19T04:10:31.941Z,1027.89
2022-10-19T04:11:32.295Z,1027.90
2022-10-19T04:12:32.664Z,1027.91
2022-10-19T04:13:33.003Z,1027.91
2022-10-19T04:14:45.663Z,1027.93
2022-10-19T04:15:33.715Z,1027.96
2022-10-19T04:16:34.176Z,1027.96
2022-10-19T04:17:34.802Z,1027.97
2022-10-19T04:18:34.810Z,1027.95
2022-10-19T04:19:35.165Z,1028.01
2022-10-19T04:20:35.530Z,1028.05
2022-10-19T04:21:35.902Z,1028.02
2022-10-19T04:22:36.398Z,1028.03
2022-10-19T04:23:36.627Z,1028.05
2022-10-19T04:24:36.979Z,1028.06
2022-10-19T04:25:37.333Z,1028.07
2022-10-19T04:26:37.705Z,1028.06
2022-10-19T04:27:38.072Z,1028.06
2022-10-19T04:28:38.496Z,1028.11
2022-10-19T04:29:38.787Z,1028.11
2022-10-19T04:30:39.158Z,1028.09
2022-10-19T04:31:39.506Z,1028.08
2022-10-19T04:32:39.900Z,1028.05
2022-10-19T04:33:40.362Z,1028.03
2022-10-19T04:34:40.653Z,1028.04
2022-10-19T04:35:41.004Z,1028.05
2022-10-19T04:36:41.346Z,1028.01
2022-10-19T04:37:41.757Z,1028.07
2022-10-19T04:38:42.062Z,1028.07
2022-10-19T04:39:42.421Z,1028.12
2022-10-19T04:40:42.777Z,1028.13
2022-10-19T04:41:43.146Z,1028.12
2022-10-19T04:42:43.509Z,1028.12
2022-10-19T04:43:43.859Z,1028.16
2022-10-19T04:44:44.213Z,1028.17
2022-10-19T04:45:44.571Z,1028.17
2022-10-19T04:46:44.920Z,1028.18
2022-10-19T04:47:45.298Z,1028.16
2022-10-19T04:48:45.657Z,1028.15
2022-10-19T04:49:46.015Z,1028.15
2022-10-19T04:50:46.360Z,1028.15
2022-10-19T04:51:46.725Z,1028.16
2022-10-19T04:52:47.097Z,1028.16
2022-10-19T04:53:47.456Z,1028.15
2022-10-19T04:54:47.775Z,1028.16
2022-10-19T04:55:48.138Z,1028.13
2022-10-19T04:56:48.497Z,1028.14
2022-10-19T04:57:48.895Z,1028.14
2022-10-19T04:58:49.255Z,1028.17
2022-10-19T04:59:49.603Z,1028.20
2022-10-19T05:00:50.045Z,1028.19
2022-10-19T05:01:50.312Z,1028.19
2022-10-19T05:02:50.686Z,1028.13
2022-10-19T05:03:51.099Z,1028.15
2022-10-19T05:04:51.411Z,1028.15
2022-10-19T05:05:51.766Z,1028.13
2022-10-19T05:06:52.122Z,1028.13
2022-10-19T05:07:52.505Z,1028.14
2022-10-19T05:08:52.855Z,1028.13
2022-10-19T05:09:53.214Z,1028.13
2022-10-19T05:10:53.563Z,1028.16
2022-10-19T05:11:53.928Z,1028.16
2022-10-19T05:12:54.311Z,1028.22
2022-10-19T05:13:54.676Z,1028.15
2022-10-19T05:14:55.061Z,1028.14
2022-10-19T05:15:55.431Z,1028.14
2022-10-19T05:16:55.810Z,1028.16
2022-10-19T05:17:56.157Z,1028.16
2022-10-19T05:18:56.321Z,1028.12
2022-10-19T05:19:56.488Z,1028.13
2022-10-19T05:20:56.696Z,1028.09
2022-10-19T05:21:57.053Z,1028.10
2022-10-19T05:22:57.178Z,1028.13
2022-10-19T05:23:57.345Z,1028.10
2022-10-19T05:24:58.259Z,1028.13
2022-10-19T05:25:58.122Z,1028.10
2022-10-19T05:26:58.362Z,1028.08
2022-10-19T05:27:58.538Z,1028.11
2022-10-19T05:28:58.875Z,1028.03
2022-10-19T05:29:59.011Z,1028.03
2022-10-19T05:30:59.267Z,1028.06
2022-10-19T05:31:59.432Z,1028.06
2022-10-19T05:32:59.641Z,1028.08
2022-10-19T05:33:59.824Z,1028.02
2022-10-19T05:34:59.953Z,1028.02
2022-10-19T05:36:00.135Z,1028.00
2022-10-19T05:37:00.346Z,1027.99
2022-10-19T05:38:00.650Z,1028.04
2022-10-19T05:39:00.903Z,1028.03
2022-10-19T05:40:01.077Z,1028.00
2022-10-19T05:41:01.235Z,1027.98
2022-10-19T05:42:01.434Z,1027.98
2022-10-19T05:43:01.633Z,1027.96
2022-10-19T05:44:01.779Z,1028.00
2022-10-19T05:45:01.948Z,1028.03
2022-10-19T05:46:02.149Z,1027.99
2022-10-19T05:47:02.439Z,1028.00
2022-10-19T05:48:02.722Z,1028.03
2022-10-19T05:49:02.889Z,1028.03
2022-10-19T05:50:03.067Z,1028.04
2022-10-19T05:51:03.353Z,1028.05
2022-10-19T05:52:03.657Z,1028.09
2022-10-19T05:53:03.947Z,1028.05
2022-10-19T05:54:04.140Z,1028.07
2022-10-19T05:55:04.532Z,1028.03
2022-10-19T05:56:04.744Z,1028.03
2022-10-19T05:57:04.908Z,1027.97
2022-10-19T05:58:05.129Z,1028.01
2022-10-19T05:59:05.258Z,1027.96
2022-10-19T06:00:05.447Z,1028.02
2022-10-19T06:01:05.741Z,1028.03
2022-10-19T06:02:06.104Z,1027.97
2022-10-19T06:03:06.251Z,1028.01
2022-10-19T06:04:06.456Z,1027.97
2022-10-19T06:05:06.724Z,1027.98
2022-10-19T06:06:06.911Z,1027.98
2022-10-19T06:07:07.192Z,1027.96
2022-10-19T06:08:07.362Z,1027.99
2022-10-19T06:09:07.516Z,1027.93
2022-10-19T06:10:07.673Z,1027.98
2022-10-19T06:11:07.886Z,1028.01
2022-10-19T06:12:08.160Z,1028.00
2022-10-19T06:13:08.457Z,1028.00
2022-10-19T06:14:08.624Z,1028.08
2022-10-19T14:00:46.206Z,1027.18
2022-10-19T14:01:47.418Z,1027.19
2022-10-19T14:02:47.564Z,1027.15
2022-10-19T14:03:47.776Z,1027.15
2022-10-19T14:04:47.914Z,1027.07
2022-10-19T14:05:48.117Z,1027.09
2022-10-19T14:06:48.288Z,1027.08
2022-10-19T14:07:48.519Z,1027.11
2022-10-19T14:08:48.782Z,1027.06
2022-10-19T14:09:48.884Z,1027.06
2022-10-19T14:11:00.471Z,1027.03
2022-10-19T14:11:49.250Z,1027.04
2022-10-19T14:12:49.447Z,1027.06
2022-10-19T14:13:49.677Z,1027.01
2022-10-19T14:14:49.945Z,1027.06
2022-10-19T14:15:50.092Z,1027.04
2022-10-19T14:16:50.228Z,1027.10
2022-10-19T14:17:50.384Z,1027.14
2022-10-19T14:18:50.591Z,1027.13
2022-10-19T14:19:50.782Z,1027.17
2022-10-19T14:20:50.985Z,1027.17
2022-10-19T14:21:51.128Z,1027.16
2022-10-19T14:22:51.324Z,1027.15
2022-10-19T14:23:51.513Z,1027.12
2022-10-19T14:24:51.705Z,1027.12
2022-10-19T14:25:51.923Z,1027.09
2022-10-19T14:26:52.081Z,1027.07
2022-10-19T14:27:52.291Z,1027.03
2022-10-19T14:28:52.479Z,1027.02
2022-10-19T14:29:52.674Z,1027.02
2022-10-19T14:30:52.920Z,1026.97
2022-10-19T14:31:53.063Z,1026.98
2022-10-19T14:32:54.761Z,1027.00
2022-10-19T14:33:53.436Z,1026.98
2022-10-19T14:34:53.787Z,1027.02
2022-10-19T14:35:53.849Z,1027.02
2022-10-19T14:36:54.034Z,1027.01
2022-10-19T14:37:54.261Z,1027.01
2022-10-19T14:38:54.419Z,1027.03
2022-10-19T14:39:54.627Z,1027.00
2022-10-19T14:40:54.837Z,1027.02
2022-10-19T14:41:54.986Z,1027.01
2022-10-19T14:42:55.184Z,1027.09
2022-10-19T14:43:55.351Z,1027.02
2022-10-19T14:44:55.545Z,1026.99
2022-10-19T14:45:55.750Z,1026.99
2022-10-19T14:46:55.918Z,1026.98
2022-10-19T14:47:56.062Z,1026.99
2022-10-19T14:48:56.284Z,1026.97
2022-10-19T14:49:56.418Z,1026.98
2022-10-19T14:50:56.634Z,1027.04
2022-10-19T14:51:56.822Z,1026.96
2022-10-19T14:52:57.000Z,1026.99
2022-10-19T14:53:57.155Z,1026.97
2022-10-19T14:54:57.353Z,1026.90
2022-10-19T14:55:57.566Z,1026.87
2022-10-19T14:56:57.739Z,1026.92
2022-10-19T14:57:57.931Z,1026.83
2022-10-19T14:58:58.127Z,1026.82
2022-10-19T14:59:58.322Z,1026.77
2022-10-19T15:00:58.537Z,1026.82
2022-10-19T15:01:58.752Z,1026.79
2022-10-19T15:02:58.908Z,1026.79
2022-10-19T15:03:59.081Z,1026.79
2022-10-19T15:04:59.267Z,1026.77
2022-10-19T15:05:59.477Z,1026.74
2022-10-19T15:06:59.645Z,1026.78
2022-10-19T15:07:59.812Z,1026.75
2022-10-19T15:09:00.011Z,1026.75
2022-10-19T15:10:00.210Z,1026.75
2022-10-19T15:11:00.425Z,1026.72
2022-10-19T15:12:00.604Z,1026.74
2022-10-19T15:13:00.789Z,1026.70
2022-10-19T15:14:00.979Z,1026.69
2022-10-19T15:15:01.170Z,1026.69
2022-10-19T15:16:01.376Z,1026.65
2022-10-19T15:17:01.564Z,1026.64
2022-10-19T15:18:01.958Z,1026.64
2022-10-19T15:19:01.920Z,1026.61
2022-10-19T15:20:02.270Z,1026.63
2022-10-19T15:21:12.117Z,1026.64
2022-10-19T15:22:02.481Z,1026.64
2022-10-19T15:23:02.664Z,1026.65
2022-10-19T15:24:02.860Z,1026.61
2022-10-19T15:25:03.048Z,1026.66
2022-10-19T15:26:03.212Z,1026.66
2022-10-19T15:27:09.384Z,1026.62
2022-10-19T15:28:03.675Z,1026.63
2022-10-19T15:29:03.795Z,1026.64
2022-10-19T15:30:03.937Z,1026.62
2022-10-19T15:31:04.217Z,1026.63
2022-10-19T15:32:04.304Z,1026.67
2022-10-19T15:33:04.518Z,1026.65
2022-10-19T15:34:04.674Z,1026.66
2022-10-19T15:35:07.585Z,1026.66
2022-10-19T15:36:05.252Z,1026.64
2022-10-19T15:37:07.323Z,1026.65
2022-10-19T15:38:05.432Z,1026.61
2022-10-19T15:39:24.566Z,1026.62
2022-10-19T15:40:05.835Z,1026.58
2022-10-19T15:41:06.142Z,1026.59
2022-10-19T15:42:06.426Z,1026.60
2022-10-19T15:43:06.726Z,1026.59
2022-10-19T15:44:07.021Z,1026.62
2022-10-19T15:45:07.220Z,1026.56
2022-10-19T15:46:07.431Z,1026.56
2022-10-19T15:47:07.597Z,1026.60
2022-10-19T15:48:07.747Z,1026.56
2022-10-19T15:49:07.929Z,1026.57
2022-10-19T15:50:08.107Z,1026.58
2022-10-19T15:51:08.409Z,1026.56
2022-10-19T15:52:08.683Z,1026.57
2022-10-19T15:53:08.990Z,1026.59
2022-10-19T15:54:09.175Z,1026.63
2022-10-19T15:55:09.344Z,1026.64
2022-10-19T15:56:12.401Z,1026.63
2022-10-19T15:57:09.848Z,1026.68
2022-10-19T15:58:10.043Z,1026.59
2022-10-19T15:59:10.205Z,1026.59
2022-10-19T16:00:10.373Z,1026.59
2022-10-19T16:01:10.564Z,1026.60
2022-10-19T16:02:10.879Z,1026.60
2022-10-19T16:03:11.156Z,1026.61
2022-10-19T16:04:11.314Z,1026.61
2022-10-19T16:05:11.626Z,1026.61
2022-10-19T16:06:11.664Z,1026.63
2022-10-19T16:07:11.826Z,1026.58
2022-10-19T16:08:12.587Z,1026.61
2022-10-19T16:09:12.223Z,1026.62
2022-10-19T16:10:12.326Z,1026.63
2022-10-19T16:11:12.520Z,1026.59
2022-10-19T16:12:12.689Z,1026.57
2022-10-19T16:13:12.884Z,1026.60
2022-10-19T16:14:13.197Z,1026.58
2022-10-19T16:15:13.472Z,1026.60
2022-10-19T16:16:13.796Z,1026.62
2022-10-19T16:17:13.971Z,1026.60
2022-10-19T16:18:14.265Z,1026.62
2022-10-19T16:19:14.557Z,1026.64
2022-10-19T16:20:14.751Z,1026.70
2022-10-19T16:21:15.074Z,1026.66
2022-10-19T16:22:15.228Z,1026.66
2022-10-19T16:23:15.545Z,1026.68
2022-10-19T16:24:15.681Z,1026.72
2022-10-19T16:25:15.866Z,1026.72
2022-10-19T16:26:16.163Z,1026.67
2022-10-19T16:27:16.487Z,1026.69
2022-10-19T16:28:16.611Z,1026.73
2022-10-19T16:29:16.902Z,1026.73
2022-10-19T16:30:17.176Z,1026.75
2022-10-19T16:31:17.410Z,1026.73
2022-10-19T16:32:17.523Z,1026.76
2022-10-19T16:33:17.707Z,1026.75
2022-10-19T16:34:17.859Z,1026.72
2022-10-19T16:35:18.152Z,1026.74
2022-10-19T16:36:18.358Z,1026.77
2022-10-19T16:37:18.501Z,1026.77
2022-10-19T16:38:18.677Z,1026.76
2022-10-19T16:39:18.883Z,1026.71
2022-10-19T16:40:19.075Z,1026.70
2022-10-19T16:41:19.314Z,1026.73
2022-10-19T16:42:19.460Z,1026.69
2022-10-19T16:43:19.750Z,1026.73
2022-10-19T16:44:20.047Z,1026.72
2022-10-19T16:45:20.347Z,1026.77
2022-10-19T16:46:20.662Z,1026.71
2022-10-19T16:47:20.812Z,1026.68
2022-10-19T16:48:24.005Z,1026.66
2022-10-19T16:49:21.134Z,1026.66
2022-10-19T16:50:21.324Z,1026.69
2022-10-19T16:51:21.765Z,1026.71
2022-10-19T16:52:22.100Z,1026.66
2022-10-19T16:53:22.483Z,1026.67
2022-10-19T16:54:22.863Z,1026.70
2022-10-19T16:55:23.245Z,1026.69
2022-10-19T16:56:23.620Z,1026.72
2022-10-19T16:57:23.833Z,1026.78
2022-10-19T16:58:24.123Z,1026.80
2022-10-19T16:59:24.426Z,1026.77
2022-10-19T17:00:24.652Z,1026.74
2022-10-19T17:01:25.035Z,1026.72
2022-10-19T17:02:25.249Z,1026.73
2022-10-19T17:03:25.673Z,1026.72
2022-10-19T17:04:26.058Z,1026.73
2022-10-19T17:05:26.421Z,1026.73
2022-10-19T17:06:26.767Z,1026.74
2022-10-19T17:07:27.110Z,1026.74
2022-10-19T17:08:36.671Z,1026.74
2022-10-19T17:09:41.297Z,1026.71
2022-10-19T17:10:28.202Z,1026.77
2022-10-19T17:11:28.540Z,1026.73
2022-10-19T17:12:28.859Z,1026.76
2022-10-19T17:13:29.235Z,1026.72
2022-10-19T17:14:29.586Z,1026.70
2022-10-19T17:15:42.478Z,1026.75
2022-10-19T17:16:30.361Z,1026.73
2022-10-19T17:17:30.704Z,1026.71
2022-10-19T17:18:31.016Z,1026.76
2022-10-19T17:19:31.390Z,1026.76
2022-10-19T17:20:31.719Z,1026.76
2022-10-19T17:21:32.108Z,1026.73
2022-10-19T17:22:32.714Z,1026.75
2022-10-19T17:23:32.761Z,1026.75
2022-10-19T17:24:33.137Z,1026.71
2022-10-19T17:25:33.503Z,1026.70
2022-10-19T17:26:33.893Z,1026.74
2022-10-19T17:27:34.221Z,1026.75
2022-10-19T17:28:34.590Z,1026.72
2022-10-19T17:29:34.956Z,1026.70
2022-10-19T17:30:35.327Z,1026.75
2022-10-19T17:31:35.749Z,1026.75
2022-10-19T17:32:36.293Z,1026.76
2022-10-19T17:33:36.382Z,1026.73
2022-10-19T17:34:36.743Z,1026.74
2022-10-19T17:35:37.111Z,1026.78
2022-10-19T17:36:37.585Z,1026.74
2022-10-19T17:37:38.179Z,1026.79
2022-10-19T17:38:38.184Z,1026.74
2022-10-19T17:39:38.564Z,1026.76
2022-10-19T17:40:38.898Z,1026.72
2022-10-19T17:41:39.284Z,1026.81
2022-10-19T17:42:39.620Z,1026.78
2022-10-19T17:43:39.939Z,1026.84
2022-10-19T17:44:40.303Z,1026.80
2022-10-19T17:45:40.684Z,1026.83
2022-10-19T17:46:41.011Z,1026.84
2022-10-19T17:47:41.328Z,1026.85
2022-10-19T17:48:41.697Z,1026.87
2022-10-19T17:49:42.040Z,1026.84
2022-10-19T17:50:42.391Z,1026.86
2022-10-19T17:51:42.742Z,1026.87
2022-10-19T17:52:43.075Z,1026.90
2022-10-19T17:53:43.445Z,1026.93
2022-10-19T17:54:54.560Z,1026.96
2022-10-19T17:55:44.182Z,1026.95
2022-10-19T17:56:44.557Z,1027.00
2022-10-19T17:57:44.870Z,1026.96
2022-10-19T17:58:45.244Z,1026.98
2022-10-19T17:59:52.423Z,1026.95
2022-10-19T18:00:45.939Z,1027.01
2022-10-19T18:01:46.296Z,1027.03
2022-10-19T18:02:46.764Z,1027.10
2022-10-19T18:03:46.979Z,1027.08
2022-10-19T18:04:47.324Z,1027.09
2022-10-19T18:05:47.687Z,1027.13
2022-10-19T18:06:48.085Z,1027.06
2022-10-19T18:07:48.398Z,1027.03
2022-10-19T18:08:48.787Z,1027.11
2022-10-19T18:09:49.114Z,1027.06
2022-10-19T18:10:49.482Z,1027.03
2022-10-19T18:11:49.850Z,1027.07
2022-10-19T18:12:50.209Z,1027.07
2022-10-19T18:13:50.581Z,1027.08
2022-10-19T18:14:50.943Z,1027.12
2022-10-19T18:15:51.296Z,1027.11
2022-10-19T18:16:51.673Z,1027.14
2022-10-19T18:17:51.996Z,1027.13
2022-10-19T18:18:52.367Z,1027.13
2022-10-19T18:19:52.705Z,1027.13
2022-10-19T18:20:53.081Z,1027.16
2022-10-19T18:21:53.444Z,1027.13
2022-10-19T18:22:53.803Z,1027.17
2022-10-19T18:23:54.178Z,1027.15
2022-10-19T18:24:54.536Z,1027.18
2022-10-19T18:25:54.906Z,1027.23
2022-10-19T18:26:55.303Z,1027.23
2022-10-19T18:27:55.639Z,1027.20
2022-10-19T18:28:56.017Z,1027.20
2022-10-19T18:29:56.365Z,1027.22
2022-10-19T18:30:56.727Z,1027.18
2022-10-19T18:31:57.127Z,1027.21
2022-10-19T18:32:57.431Z,1027.16
2022-10-19T18:33:57.801Z,1027.22
2022-10-19T18:34:58.162Z,1027.20
2022-10-19T18:35:58.533Z,1027.23
2022-10-19T18:36:58.931Z,1027.26
2022-10-19T18:37:59.262Z,1027.23
2022-10-19T18:38:59.620Z,1027.23
2022-10-19T18:39:59.944Z,1027.22
2022-10-19T18:41:00.356Z,1027.19
2022-10-19T18:42:00.672Z,1027.18
2022-10-19T18:43:01.012Z,1027.18
2022-10-19T18:44:01.377Z,1027.17
2022-10-19T18:45:01.740Z,1027.14
2022-10-19T18:46:02.105Z,1027.11
2022-10-19T18:47:02.487Z,1027.09
2022-10-19T18:48:02.801Z,1027.04
2022-10-19T18:49:03.168Z,1027.10
2022-10-19T18:50:03.562Z,1027.04
2022-10-19T18:51:03.900Z,1027.04
2022-10-19T18:52:04.281Z,1027.02
2022-10-19T18:53:04.620Z,1027.02
2022-10-19T18:54:04.981Z,1027.00
2022-10-19T18:55:05.339Z,1027.04
2022-10-19T18:56:05.695Z,1027.04
2022-10-19T18:57:06.088Z,1027.01
2022-10-19T18:58:06.406Z,1027.02
2022-10-19T18:59:06.777Z,1027.00
2022-10-19T19:00:07.145Z,1026.99
2022-10-19T19:01:07.516Z,1027.01
2022-10-19T19:02:13.745Z,1026.95
2022-10-19T19:03:08.243Z,1026.97
2022-10-19T19:04:08.593Z,1026.95
2022-10-19T19:05:08.964Z,1026.93
2022-10-19T19:06:09.334Z,1026.92
2022-10-19T19:07:09.720Z,1026.92
2022-10-19T19:08:10.047Z,1026.92
2022-10-19T19:09:10.423Z,1026.84
2022-10-19T19:10:10.757Z,1026.90
2022-10-19T19:11:11.106Z,1026.87
2022-10-19T19:12:11.472Z,1026.87
2022-10-19T19:13:11.841Z,1026.88
2022-10-19T19:14:12.215Z,1026.90
2022-10-19T19:15:12.585Z,1026.88
2022-10-19T19:16:12.950Z,1026.91
2022-10-19T19:17:13.298Z,1026.90
2022-10-19T19:18:13.668Z,1026.88
2022-10-19T19:19:14.000Z,1026.87
2022-10-19T19:20:14.371Z,1026.83
2022-10-19T19:21:14.742Z,1026.84
2022-10-19T19:22:15.082Z,1026.87
2022-10-19T19:23:15.408Z,1026.83
2022-10-19T19:24:15.775Z,1026.87
2022-10-19T19:25:16.145Z,1026.84
2022-10-19T19:26:16.514Z,1026.83
2022-10-19T19:27:16.932Z,1026.78
2022-10-19T19:28:17.230Z,1026.81
2022-10-19T19:29:17.595Z,1026.82
2022-10-19T19:30:17.959Z,1026.83
2022-10-19T19:31:18.328Z,1026.81
2022-10-19T19:32:18.733Z,1026.79
2022-10-19T19:33:19.030Z,1026.76
2022-10-19T19:34:19.402Z,1026.75
2022-10-19T19:35:19.768Z,1026.78
2022-10-19T19:36:20.139Z,1026.71
2022-10-19T19:37:20.525Z,1026.69
2022-10-19T19:38:20.894Z,1026.71
2022-10-19T19:39:21.207Z,1026.72
2022-10-19T19:40:21.582Z,1026.73
2022-10-19T19:41:21.916Z,1026.65
2022-10-19T19:42:25.674Z,1026.64
2022-10-19T19:43:22.627Z,1026.61
2022-10-19T19:44:22.958Z,1026.64
2022-10-19T19:45:23.316Z,1026.62
2022-10-19T19:46:23.672Z,1026.59
2022-10-19T19:47:24.047Z,1026.60
2022-10-19T19:48:24.364Z,1026.56
2022-10-19T19:49:24.735Z,1026.56
2022-10-19T19:50:25.090Z,1026.58
2022-10-19T19:51:25.457Z,1026.52
2022-10-19T19:52:25.838Z,1026.46
2022-10-19T19:53:26.190Z,1026.47
2022-10-19T19:54:26.560Z,1026.42
2022-10-19T19:55:26.936Z,1026.38
2022-10-19T19:56:27.303Z,1026.37
2022-10-19T19:57:27.680Z,1026.36
2022-10-19T19:58:28.007Z,1026.29
2022-10-19T19:59:28.365Z,1026.32
2022-10-19T20:00:28.741Z,1026.28
2022-10-19T20:01:29.084Z,1026.28
2022-10-19T20:02:29.448Z,1026.24
2022-10-19T20:03:29.763Z,1026.24
2022-10-19T20:04:30.128Z,1026.20
2022-10-19T20:05:30.496Z,1026.15
2022-10-19T20:06:30.862Z,1026.16
2022-10-19T20:07:31.244Z,1026.15
2022-10-19T20:08:31.715Z,1026.17
2022-10-19T20:09:31.933Z,1026.13
2022-10-19T20:10:32.298Z,1026.14
2022-10-19T20:11:32.634Z,1026.12
2022-10-19T20:12:33.016Z,1026.11
2022-10-19T20:13:33.345Z,1026.12
2022-10-19T20:14:39.702Z,1026.07
2022-10-19T20:15:34.050Z,1026.10
2022-10-19T20:16:34.406Z,1026.10
2022-10-19T20:17:35.099Z,1026.11
2022-10-19T20:18:35.110Z,1026.09
2022-10-19T20:19:35.486Z,1026.12
2022-10-19T20:20:35.814Z,1026.11
2022-10-19T20:21:36.186Z,1026.17
2022-10-19T20:22:36.547Z,1026.17
2022-10-19T20:23:36.892Z,1026.15
2022-10-19T20:24:37.830Z,1026.20
2022-10-19T20:25:37.594Z,1026.22
2022-10-19T20:26:37.939Z,1026.10
2022-10-19T20:27:38.443Z,1026.15
2022-10-19T20:28:38.652Z,1026.14
2022-10-19T20:29:39.010Z,1026.13
2022-10-19T20:30:39.378Z,1026.08
2022-10-19T20:31:40.203Z,1026.17
2022-10-19T20:32:40.142Z,1026.15
2022-10-19T20:33:40.461Z,1026.12
2022-10-19T20:34:40.829Z,1026.16
2022-10-19T20:35:41.197Z,1026.16
2022-10-19T20:36:41.562Z,1026.11
2022-10-19T20:37:41.964Z,1026.10
2022-10-19T20:38:42.309Z,1026.12
2022-10-19T20:39:42.657Z,1026.10
2022-10-19T20:40:43.018Z,1026.13
2022-10-19T20:41:43.388Z,1026.17
2022-10-19T20:42:43.743Z,1026.15
2022-10-19T20:43:44.073Z,1026.15
2022-10-19T20:44:44.394Z,1026.10
2022-10-19T20:45:44.766Z,1026.14
2022-10-19T20:46:45.125Z,1026.11
2022-10-19T20:47:45.513Z,1026.14
2022-10-19T20:48:45.848Z,1026.14
2022-10-19T20:49:46.225Z,1026.08
2022-10-19T20:50:46.582Z,1026.07
2022-10-19T20:51:46.971Z,1026.07
2022-10-19T20:52:47.304Z,1026.13
2022-10-19T20:53:47.633Z,1026.13
2022-10-19T20:54:48.003Z,1026.11
2022-10-19T20:55:48.341Z,1026.05
2022-10-19T20:56:48.704Z,1026.07
2022-10-19T20:57:49.091Z,1026.06
2022-10-19T20:58:49.492Z,1026.05
2022-10-19T20:59:49.769Z,1026.05
2022-10-19T21:00:50.133Z,1026.05
2022-10-19T21:01:50.526Z,1026.01
2022-10-19T21:02:50.878Z,1026.05
2022-10-19T21:03:51.210Z,1026.01
2022-10-19T21:04:51.583Z,1025.98
2022-10-19T21:05:51.967Z,1026.00
2022-10-19T21:06:52.295Z,1025.96
2022-10-19T21:07:52.683Z,1026.01
2022-10-19T21:08:53.069Z,1026.01
2022-10-19T21:09:53.356Z,1025.98
2022-10-19T21:10:53.699Z,1025.98
2022-10-19T21:11:54.072Z,1025.96
2022-10-19T21:12:54.451Z,1025.99
2022-10-19T21:13:54.805Z,1025.97
2022-10-19T21:14:55.175Z,1025.98
